createdAt,value
2023-01-18T00:01:46.504Z,1.01
2023-01-18T00:07:17.751Z,1.00
2023-01-18T00:12:49.100Z,1.00
2023-01-18T00:18:20.123Z,0.99
2023-01-18T00:23:51.443Z,0.97
2023-01-18T00:29:22.406Z,0.97
2023-01-18T00:34:53.904Z,0.98
2023-01-18T00:40:29.002Z,0.98
2023-01-18T00:46:00.097Z,0.95
2023-01-18T00:51:31.201Z,0.97
2023-01-18T00:57:02.270Z,0.97
2023-01-18T01:02:33.707Z,0.96
2023-01-18T01:08:05.977Z,0.96
2023-01-18T01:13:55.785Z,0.96
2023-01-18T01:19:46.268Z,0.96
2023-01-18T01:25:35.803Z,0.95
2023-01-18T01:31:08.124Z,0.95
2023-01-18T01:36:39.532Z,0.95
2023-01-18T01:42:11.436Z,0.96
2023-01-18T01:47:43.039Z,0.95
2023-01-18T01:53:14.116Z,0.94
2023-01-18T01:58:45.344Z,0.95
2023-01-18T02:04:16.382Z,0.93
2023-01-18T02:09:47.381Z,0.94
2023-01-18T02:15:20.112Z,0.94
2023-01-18T02:21:00.779Z,0.93
2023-01-18T02:26:49.878Z,0.94
2023-01-18T02:32:20.735Z,0.94
2023-01-18T02:37:51.784Z,0.94
2023-01-18T02:43:41.887Z,0.93
2023-01-18T02:49:18.807Z,0.92
2023-01-18T02:54:49.669Z,0.90
2023-01-18T03:00:23.524Z,0.90
2023-01-18T03:05:56.316Z,0.92
2023-01-18T03:11:31.489Z,0.93
2023-01-18T03:17:20.296Z,0.93
2023-01-18T03:23:12.238Z,0.93
2023-01-18T03:29:05.615Z,0.92
2023-01-18T03:34:36.695Z,0.92
2023-01-18T03:40:07.756Z,0.90
2023-01-18T03:45:45.025Z,0.91
2023-01-18T03:51:18.884Z,0.90
2023-01-18T03:56:54.552Z,0.89
2023-01-18T04:02:26.695Z,0.89
2023-01-18T04:07:57.861Z,0.92
2023-01-18T04:13:29.005Z,0.93
2023-01-18T04:19:00.029Z,0.94
2023-01-18T04:24:30.993Z,0.92
2023-01-18T04:30:06.425Z,0.92
2023-01-18T04:35:37.277Z,0.91
2023-01-18T04:41:08.305Z,0.92
2023-01-18T04:46:39.497Z,0.91
2023-01-18T04:52:10.635Z,0.91
2023-01-18T04:57:45.126Z,0.89
2023-01-18T05:03:16.384Z,0.92
2023-01-18T05:08:47.616Z,0.91
2023-01-18T05:14:19.139Z,0.91
2023-01-18T05:19:51.698Z,0.90
2023-01-18T05:25:22.731Z,0.90
2023-01-18T05:30:54.660Z,0.90
2023-01-18T05:36:25.672Z,0.91
2023-01-18T05:41:58.727Z,0.90
2023-01-18T05:47:31.365Z,0.90
2023-01-18T05:53:02.269Z,0.90
2023-01-18T05:58:33.132Z,0.88
2023-01-18T06:04:04.411Z,0.87
2023-01-18T06:09:35.646Z,0.87
2023-01-18T06:15:06.977Z,0.87
2023-01-18T06:20:37.955Z,0.86
2023-01-18T06:26:09.112Z,0.86
2023-01-18T06:31:40.395Z,0.86
2023-01-18T06:37:11.523Z,0.86
2023-01-18T06:42:42.611Z,0.91
2023-01-18T06:48:13.435Z,0.99
2023-01-18T06:53:44.318Z,1.05
2023-01-18T06:59:15.957Z,1.09
2023-01-18T07:04:47.397Z,1.17
2023-01-18T07:10:18.481Z,1.24
2023-01-18T07:15:57.988Z,1.31
2023-01-18T07:21:30.904Z,1.37
2023-01-18T07:27:03.478Z,1.43
2023-01-18T07:32:34.394Z,1.46
2023-01-18T07:38:05.533Z,1.50
2023-01-18T07:43:37.952Z,1.51
2023-01-18T07:49:09.224Z,1.54
2023-01-18T07:54:40.469Z,1.57
2023-01-18T08:00:12.159Z,1.59
2023-01-18T08:05:46.570Z,1.64
2023-01-18T08:11:18.031Z,1.67
2023-01-18T08:16:49.443Z,1.68
2023-01-18T08:22:20.507Z,1.71
2023-01-18T08:27:51.317Z,1.73
2023-01-18T08:33:23.229Z,1.70
2023-01-18T08:38:55.502Z,1.60
2023-01-18T08:44:26.913Z,1.58
2023-01-18T08:49:58.051Z,1.64
2023-01-18T08:55:29.965Z,1.73
2023-01-18T09:01:04.315Z,1.75
2023-01-18T09:06:35.412Z,1.80
2023-01-18T09:12:06.527Z,1.80
2023-01-18T09:17:37.773Z,1.83
2023-01-18T09:23:09.382Z,1.83
2023-01-18T09:28:40.532Z,1.85
2023-01-18T09:34:19.421Z,1.85
2023-01-18T09:39:52.411Z,1.87
2023-01-18T09:45:26.379Z,1.87
2023-01-18T09:50:58.946Z,1.88
2023-01-18T09:56:33.351Z,1.90
2023-01-18T10:02:10.315Z,1.90
2023-01-18T10:08:02.925Z,1.89
2023-01-18T10:13:45.721Z,1.91
2023-01-18T10:19:19.158Z,1.92
2023-01-18T10:24:51.976Z,1.97
2023-01-18T10:30:29.607Z,1.99
2023-01-18T10:36:01.383Z,2.02
2023-01-18T10:41:33.829Z,2.05
2023-01-18T10:47:04.999Z,2.07
2023-01-18T10:52:36.230Z,2.10
2023-01-18T10:58:09.116Z,2.11
2023-01-18T11:03:45.414Z,2.10
2023-01-18T11:09:34.620Z,2.07
2023-01-18T11:15:14.455Z,2.06
2023-01-18T11:20:50.278Z,2.06
2023-01-18T11:26:22.150Z,2.04
2023-01-18T11:31:53.116Z,2.02
2023-01-18T11:37:24.357Z,2.02
2023-01-18T11:43:10.207Z,1.99
2023-01-18T11:48:50.644Z,1.99
2023-01-18T11:54:26.847Z,1.99
2023-01-18T11:59:58.767Z,1.97
2023-01-18T12:05:32.249Z,1.95
2023-01-18T12:11:21.627Z,1.92
2023-01-18T12:17:06.423Z,1.93
2023-01-18T12:22:52.859Z,1.93
2023-01-18T12:28:43.319Z,1.93
2023-01-18T12:34:15.529Z,1.92
2023-01-18T12:40:00.260Z,1.93
2023-01-18T12:45:43.683Z,1.92
2023-01-18T12:51:18.118Z,1.92
2023-01-18T12:56:49.895Z,1.94
2023-01-18T13:02:34.126Z,1.95
2023-01-18T13:08:11.965Z,1.96
2023-01-18T13:13:45.102Z,1.96
2023-01-18T13:19:22.232Z,1.95
2023-01-18T13:25:09.497Z,1.96
2023-01-18T13:31:02.192Z,1.98
2023-01-18T13:36:44.750Z,1.99
2023-01-18T13:42:24.220Z,1.99
2023-01-18T13:48:03.621Z,1.98
2023-01-18T13:53:50.285Z,1.98
2023-01-18T13:59:23.452Z,2.00
2023-01-18T14:05:03.961Z,2.01
2023-01-18T14:10:37.083Z,2.01
2023-01-18T14:16:13.232Z,2.00
2023-01-18T14:21:44.219Z,2.01
2023-01-18T14:27:17.006Z,2.02
2023-01-18T14:32:53.609Z,2.00
2023-01-18T14:38:25.358Z,1.99
2023-01-18T14:43:56.438Z,2.00
2023-01-18T14:49:29.535Z,1.98
2023-01-18T14:55:00.714Z,1.98
2023-01-18T15:00:32.023Z,1.97
2023-01-18T15:06:13.345Z,1.96
2023-01-18T15:11:44.487Z,1.96
2023-01-18T15:17:21.650Z,1.96
2023-01-18T15:22:52.939Z,1.92
2023-01-18T15:28:29.214Z,1.92
2023-01-18T15:34:00.276Z,1.90
2023-01-18T15:39:34.626Z,1.89
2023-01-18T15:45:06.111Z,1.87
2023-01-18T15:50:38.553Z,1.86
2023-01-18T15:56:15.541Z,1.87
2023-01-18T16:01:49.640Z,1.85
2023-01-18T16:07:29.995Z,1.84
2023-01-18T16:13:19.628Z,1.82
2023-01-18T16:18:52.062Z,1.79
2023-01-18T16:24:27.613Z,1.79
2023-01-18T16:29:59.911Z,1.78
2023-01-18T16:35:31.153Z,1.75
2023-01-18T16:41:03.400Z,1.73
2023-01-18T16:46:36.124Z,1.70
2023-01-18T16:52:12.721Z,1.69
2023-01-18T16:57:44.452Z,1.65
2023-01-18T17:03:15.638Z,1.64
2023-01-18T17:08:46.796Z,1.63
2023-01-18T17:14:18.483Z,1.64
2023-01-18T17:19:51.677Z,1.62
2023-01-18T17:25:23.126Z,1.61
2023-01-18T17:30:54.273Z,1.58
2023-01-18T17:36:25.744Z,1.57
2023-01-18T17:41:56.778Z,1.54
2023-01-18T17:47:28.375Z,1.53
2023-01-18T17:52:59.772Z,1.51
2023-01-18T17:58:31.107Z,1.52
2023-01-18T18:04:02.265Z,1.52
2023-01-18T18:09:38.373Z,1.50
2023-01-18T18:15:09.445Z,1.49
2023-01-18T18:20:40.421Z,1.47
2023-01-18T18:26:11.653Z,1.47
2023-01-18T18:31:44.096Z,1.45
2023-01-18T18:37:16.414Z,1.40
2023-01-18T18:43:00.696Z,1.38
2023-01-18T18:48:33.540Z,1.38
2023-01-18T18:54:05.199Z,1.40
2023-01-18T18:59:36.248Z,1.42
2023-01-18T19:05:07.582Z,1.41
2023-01-18T19:10:39.481Z,1.40
2023-01-18T19:16:11.101Z,1.40
2023-01-18T19:21:42.461Z,1.38
2023-01-18T19:27:13.499Z,1.35
2023-01-18T19:32:47.883Z,1.34
2023-01-18T19:38:18.963Z,1.36
2023-01-18T19:43:50.528Z,1.34
2023-01-18T19:49:25.359Z,1.32
2023-01-18T19:54:56.478Z,1.32
2023-01-18T20:00:27.718Z,1.33
2023-01-18T20:05:58.747Z,1.32
2023-01-18T20:11:29.990Z,1.32
2023-01-18T20:17:01.033Z,1.31
2023-01-18T20:22:32.130Z,1.31
2023-01-18T20:28:03.620Z,1.32
2023-01-18T20:33:35.678Z,1.30
2023-01-18T20:39:07.793Z,1.30
2023-01-18T20:44:38.676Z,1.27
2023-01-18T20:50:10.146Z,1.27
2023-01-18T20:55:42.181Z,1.26
2023-01-18T21:01:15.942Z,1.25
2023-01-18T21:06:48.137Z,1.26
2023-01-18T21:12:19.382Z,1.23
2023-01-18T21:17:51.637Z,1.23
2023-01-18T21:23:28.819Z,1.22
2023-01-18T21:29:00.110Z,1.19
2023-01-18T21:34:31.117Z,1.18
2023-01-18T21:40:02.699Z,1.15
2023-01-18T21:45:52.595Z,1.10
2023-01-18T21:51:42.248Z,1.08
2023-01-18T21:57:13.244Z,1.06
2023-01-18T22:02:44.371Z,1.05
2023-01-18T22:08:15.432Z,1.02
2023-01-18T22:13:46.810Z,1.01
2023-01-18T22:19:19.319Z,1.00
2023-01-18T22:24:50.405Z,1.01
2023-01-18T22:30:21.536Z,1.02
2023-01-18T22:36:01.594Z,0.99
2023-01-18T22:41:32.423Z,0.96
2023-01-18T22:47:03.368Z,0.94
2023-01-18T22:52:34.764Z,0.93
2023-01-18T22:58:05.585Z,0.94
2023-01-18T23:03:36.665Z,0.93
2023-01-18T23:09:09.110Z,0.90
2023-01-18T23:14:58.887Z,0.89
2023-01-18T23:20:30.208Z,0.88
2023-01-18T23:26:01.424Z,0.88
2023-01-18T23:31:32.266Z,0.89
2023-01-18T23:37:03.243Z,0.87
2023-01-18T23:42:52.939Z,0.87
2023-01-18T23:48:42.510Z,0.87
2023-01-18T23:54:16.956Z,0.87
2023-01-18T23:59:48.450Z,0.85
